sensor_id;sensor_type;location;lat;lon;timestamp;P1;durP1;ratioP1;P2;durP2;ratioP2
65581;SDS011;52231;40.090;18.348;2023-03-19T00:02:15;47.03;;;25.42;;
65581;SDS011;52231;40.090;18.348;2023-03-19T00:04:45;51.63;;;26.63;;
65581;SDS011;52231;40.090;18.348;2023-03-19T00:09:42;43.63;;;25.20;;
65581;SDS011;52231;40.090;18.348;2023-03-19T00:12:11;51.83;;;25.25;;
65581;SDS011;52231;40.090;18.348;2023-03-19T00:14:39;48.30;;;25.83;;
65581;SDS011;52231;40.090;18.348;2023-03-19T00:17:08;50.45;;;24.50;;
65581;SDS011;52231;40.090;18.348;2023-03-19T00:19:37;44.58;;;23.50;;
65581;SDS011;52231;40.090;18.348;2023-03-19T00:22:06;44.58;;;24.10;;
65581;SDS011;52231;40.090;18.348;2023-03-19T00:24:35;42.88;;;22.55;;
65581;SDS011;52231;40.090;18.348;2023-03-19T00:27:05;45.88;;;23.65;;
65581;SDS011;52231;40.090;18.348;2023-03-19T00:29:34;48.00;;;23.85;;
65581;SDS011;52231;40.090;18.348;2023-03-19T00:32:03;44.17;;;22.92;;
65581;SDS011;52231;40.090;18.348;2023-03-19T00:34:31;42.35;;;22.60;;
65581;SDS011;52231;40.090;18.348;2023-03-19T00:36:59;42.30;;;22.85;;
65581;SDS011;52231;40.090;18.348;2023-03-19T00:39:31;36.47;;;21.20;;
65581;SDS011;52231;40.090;18.348;2023-03-19T00:42:00;41.65;;;23.27;;
65581;SDS011;52231;40.090;18.348;2023-03-19T00:44:29;42.72;;;24.42;;
65581;SDS011;52231;40.090;18.348;2023-03-19T00:46:58;43.10;;;23.77;;
65581;SDS011;52231;40.090;18.348;2023-03-19T00:49:26;41.40;;;23.52;;
65581;SDS011;52231;40.090;18.348;2023-03-19T00:51:54;43.35;;;23.83;;
65581;SDS011;52231;40.090;18.348;2023-03-19T00:54:23;45.63;;;24.13;;
65581;SDS011;52231;40.090;18.348;2023-03-19T00:56:51;42.90;;;22.80;;
65581;SDS011;52231;40.090;18.348;2023-03-19T00:59:20;42.97;;;24.50;;
65581;SDS011;52231;40.090;18.348;2023-03-19T01:01:48;45.78;;;23.58;;
65581;SDS011;52231;40.090;18.348;2023-03-19T01:04:16;44.60;;;22.92;;
65581;SDS011;52231;40.090;18.348;2023-03-19T01:06:45;45.10;;;25.85;;
65581;SDS011;52231;40.090;18.348;2023-03-19T01:09:14;43.00;;;24.25;;
65581;SDS011;52231;40.090;18.348;2023-03-19T01:11:46;45.65;;;25.45;;
65581;SDS011;52231;40.090;18.348;2023-03-19T01:14:14;44.35;;;22.80;;
65581;SDS011;52231;40.090;18.348;2023-03-19T01:16:43;40.88;;;23.33;;
65581;SDS011;52231;40.090;18.348;2023-03-19T01:19:12;43.38;;;23.63;;
65581;SDS011;52231;40.090;18.348;2023-03-19T01:21:43;49.92;;;27.02;;
65581;SDS011;52231;40.090;18.348;2023-03-19T01:24:17;53.28;;;27.60;;
65581;SDS011;52231;40.090;18.348;2023-03-19T01:26:50;51.50;;;26.88;;
65581;SDS011;52231;40.090;18.348;2023-03-19T01:29:26;50.67;;;27.30;;
65581;SDS011;52231;40.090;18.348;2023-03-19T01:31:58;45.42;;;25.27;;
65581;SDS011;52231;40.090;18.348;2023-03-19T01:34:45;41.33;;;23.23;;
65581;SDS011;52231;40.090;18.348;2023-03-19T01:37:16;41.72;;;23.33;;
65581;SDS011;52231;40.090;18.348;2023-03-19T01:39:45;41.38;;;22.85;;
65581;SDS011;52231;40.090;18.348;2023-03-19T01:42:14;43.38;;;23.23;;
65581;SDS011;52231;40.090;18.348;2023-03-19T01:44:55;41.42;;;22.90;;
65581;SDS011;52231;40.090;18.348;2023-03-19T01:47:44;42.45;;;22.77;;
65581;SDS011;52231;40.090;18.348;2023-03-19T01:50:28;46.10;;;23.25;;
65581;SDS011;52231;40.090;18.348;2023-03-19T01:53:18;42.13;;;23.38;;
65581;SDS011;52231;40.090;18.348;2023-03-19T01:56:02;39.33;;;21.63;;
65581;SDS011;52231;40.090;18.348;2023-03-19T01:58:54;41.28;;;22.30;;
65581;SDS011;52231;40.090;18.348;2023-03-19T02:01:42;38.72;;;22.45;;
65581;SDS011;52231;40.090;18.348;2023-03-19T02:04:16;41.78;;;21.70;;
65581;SDS011;52231;40.090;18.348;2023-03-19T02:06:45;40.38;;;20.85;;
65581;SDS011;52231;40.090;18.348;2023-03-19T02:09:14;40.25;;;20.65;;
65581;SDS011;52231;40.090;18.348;2023-03-19T02:11:44;34.72;;;18.92;;
65581;SDS011;52231;40.090;18.348;2023-03-19T02:14:13;37.40;;;20.40;;
65581;SDS011;52231;40.090;18.348;2023-03-19T02:16:41;42.72;;;22.13;;
65581;SDS011;52231;40.090;18.348;2023-03-19T02:19:12;42.03;;;23.33;;
65581;SDS011;52231;40.090;18.348;2023-03-19T02:21:48;47.67;;;26.02;;
65581;SDS011;52231;40.090;18.348;2023-03-19T02:24:28;46.47;;;25.63;;
65581;SDS011;52231;40.090;18.348;2023-03-19T02:27:06;50.50;;;26.20;;
65581;SDS011;52231;40.090;18.348;2023-03-19T02:29:39;46.25;;;25.35;;
65581;SDS011;52231;40.090;18.348;2023-03-19T02:32:08;48.10;;;24.88;;
65581;SDS011;52231;40.090;18.348;2023-03-19T02:34:40;47.55;;;26.15;;
65581;SDS011;52231;40.090;18.348;2023-03-19T02:37:17;44.03;;;22.98;;
65581;SDS011;52231;40.090;18.348;2023-03-19T02:40:05;49.03;;;23.42;;
65581;SDS011;52231;40.090;18.348;2023-03-19T02:42:39;40.72;;;23.33;;
65581;SDS011;52231;40.090;18.348;2023-03-19T02:45:07;46.80;;;25.70;;
65581;SDS011;52231;40.090;18.348;2023-03-19T02:47:36;47.70;;;25.65;;
65581;SDS011;52231;40.090;18.348;2023-03-19T02:50:04;48.78;;;25.17;;
65581;SDS011;52231;40.090;18.348;2023-03-19T02:52:33;51.28;;;25.17;;
65581;SDS011;52231;40.090;18.348;2023-03-19T02:55:02;45.22;;;24.38;;
65581;SDS011;52231;40.090;18.348;2023-03-19T02:57:30;48.20;;;25.58;;
65581;SDS011;52231;40.090;18.348;2023-03-19T03:00:02;47.47;;;24.38;;
65581;SDS011;52231;40.090;18.348;2023-03-19T03:02:32;44.42;;;25.10;;
65581;SDS011;52231;40.090;18.348;2023-03-19T03:05:00;43.45;;;23.55;;
65581;SDS011;52231;40.090;18.348;2023-03-19T03:07:28;44.50;;;24.10;;
65581;SDS011;52231;40.090;18.348;2023-03-19T03:09:57;42.83;;;22.27;;
65581;SDS011;52231;40.090;18.348;2023-03-19T03:12:26;42.45;;;22.75;;
65581;SDS011;52231;40.090;18.348;2023-03-19T03:14:54;41.45;;;22.90;;
65581;SDS011;52231;40.090;18.348;2023-03-19T03:17:22;40.90;;;22.55;;
65581;SDS011;52231;40.090;18.348;2023-03-19T03:19:51;41.25;;;21.67;;
65581;SDS011;52231;40.090;18.348;2023-03-19T03:22:19;43.38;;;22.90;;
65581;SDS011;52231;40.090;18.348;2023-03-19T03:24:48;43.75;;;23.75;;
65581;SDS011;52231;40.090;18.348;2023-03-19T03:27:16;51.38;;;23.98;;
65581;SDS011;52231;40.090;18.348;2023-03-19T03:29:44;43.80;;;21.25;;
65581;SDS011;52231;40.090;18.348;2023-03-19T03:32:13;43.15;;;22.73;;
65581;SDS011;52231;40.090;18.348;2023-03-19T03:34:42;48.20;;;24.70;;
65581;SDS011;52231;40.090;18.348;2023-03-19T03:37:12;42.30;;;23.00;;
65581;SDS011;52231;40.090;18.348;2023-03-19T03:39:41;50.05;;;24.27;;
65581;SDS011;52231;40.090;18.348;2023-03-19T03:44:40;42.40;;;22.15;;
65581;SDS011;52231;40.090;18.348;2023-03-19T03:47:08;47.50;;;26.33;;
65581;SDS011;52231;40.090;18.348;2023-03-19T03:49:36;48.28;;;25.58;;
65581;SDS011;52231;40.090;18.348;2023-03-19T03:52:05;41.75;;;23.40;;
65581;SDS011;52231;40.090;18.348;2023-03-19T03:54:35;42.08;;;22.70;;
65581;SDS011;52231;40.090;18.348;2023-03-19T03:57:03;41.58;;;22.00;;
65581;SDS011;52231;40.090;18.348;2023-03-19T03:59:32;42.70;;;24.67;;
65581;SDS011;52231;40.090;18.348;2023-03-19T04:02:00;43.22;;;23.05;;
65581;SDS011;52231;40.090;18.348;2023-03-19T04:04:29;41.17;;;22.83;;
65581;SDS011;52231;40.090;18.348;2023-03-19T04:06:57;46.45;;;23.80;;
65581;SDS011;52231;40.090;18.348;2023-03-19T04:09:41;50.60;;;25.45;;
65581;SDS011;52231;40.090;18.348;2023-03-19T04:12:10;52.67;;;27.23;;
65581;SDS011;52231;40.090;18.348;2023-03-19T04:14:41;58.00;;;29.90;;
65581;SDS011;52231;40.090;18.348;2023-03-19T04:17:10;49.03;;;27.80;;
65581;SDS011;52231;40.090;18.348;2023-03-19T04:19:39;53.17;;;28.38;;
65581;SDS011;52231;40.090;18.348;2023-03-19T04:22:09;57.50;;;29.27;;
65581;SDS011;52231;40.090;18.348;2023-03-19T04:24:40;49.70;;;28.10;;
65581;SDS011;52231;40.090;18.348;2023-03-19T04:27:09;60.00;;;30.25;;
65581;SDS011;52231;40.090;18.348;2023-03-19T04:29:38;54.47;;;29.33;;
65581;SDS011;52231;40.090;18.348;2023-03-19T04:32:07;51.63;;;28.25;;
65581;SDS011;52231;40.090;18.348;2023-03-19T04:34:35;51.85;;;28.55;;
65581;SDS011;52231;40.090;18.348;2023-03-19T04:37:04;51.90;;;29.15;;
65581;SDS011;52231;40.090;18.348;2023-03-19T04:39:41;55.47;;;29.10;;
65581;SDS011;52231;40.090;18.348;2023-03-19T04:42:12;59.15;;;29.42;;
65581;SDS011;52231;40.090;18.348;2023-03-19T04:44:46;51.38;;;28.48;;
65581;SDS011;52231;40.090;18.348;2023-03-19T04:47:15;50.40;;;28.13;;
65581;SDS011;52231;40.090;18.348;2023-03-19T04:49:51;53.38;;;28.02;;
65581;SDS011;52231;40.090;18.348;2023-03-19T04:52:22;50.72;;;27.90;;
65581;SDS011;52231;40.090;18.348;2023-03-19T04:54:50;56.33;;;26.88;;
65581;SDS011;52231;40.090;18.348;2023-03-19T04:59:49;50.03;;;26.70;;
65581;SDS011;52231;40.090;18.348;2023-03-19T05:02:20;60.97;;;29.05;;
65581;SDS011;52231;40.090;18.348;2023-03-19T05:04:49;46.28;;;24.27;;
65581;SDS011;52231;40.090;18.348;2023-03-19T05:07:17;52.80;;;27.60;;
65581;SDS011;52231;40.090;18.348;2023-03-19T05:09:46;52.10;;;27.60;;
65581;SDS011;52231;40.090;18.348;2023-03-19T05:12:15;47.05;;;25.02;;
65581;SDS011;52231;40.090;18.348;2023-03-19T05:14:48;45.80;;;23.42;;
65581;SDS011;52231;40.090;18.348;2023-03-19T05:17:22;48.47;;;24.48;;
65581;SDS011;52231;40.090;18.348;2023-03-19T05:20:09;45.90;;;24.67;;
65581;SDS011;52231;40.090;18.348;2023-03-19T05:22:45;46.17;;;24.17;;
65581;SDS011;52231;40.090;18.348;2023-03-19T05:25:15;44.28;;;24.00;;
65581;SDS011;52231;40.090;18.348;2023-03-19T05:27:44;45.95;;;24.50;;
65581;SDS011;52231;40.090;18.348;2023-03-19T05:30:18;47.92;;;24.42;;
65581;SDS011;52231;40.090;18.348;2023-03-19T05:33:05;43.28;;;23.50;;
65581;SDS011;52231;40.090;18.348;2023-03-19T05:35:36;49.63;;;24.15;;
65581;SDS011;52231;40.090;18.348;2023-03-19T05:38:30;39.85;;;22.90;;
65581;SDS011;52231;40.090;18.348;2023-03-19T05:41:04;43.05;;;24.08;;
65581;SDS011;52231;40.090;18.348;2023-03-19T05:43:57;43.10;;;23.58;;
65581;SDS011;52231;40.090;18.348;2023-03-19T05:46:54;46.22;;;25.05;;
65581;SDS011;52231;40.090;18.348;2023-03-19T05:49:26;45.35;;;24.15;;
65581;SDS011;52231;40.090;18.348;2023-03-19T05:51:54;44.95;;;24.08;;
65581;SDS011;52231;40.090;18.348;2023-03-19T05:54:23;46.13;;;25.40;;
65581;SDS011;52231;40.090;18.348;2023-03-19T05:57:19;46.10;;;24.23;;
65581;SDS011;52231;40.090;18.348;2023-03-19T05:59:56;46.08;;;25.02;;
65581;SDS011;52231;40.090;18.348;2023-03-19T06:02:24;45.53;;;24.27;;
65581;SDS011;52231;40.090;18.348;2023-03-19T06:05:07;44.65;;;23.63;;
65581;SDS011;52231;40.090;18.348;2023-03-19T06:07:38;42.42;;;24.17;;
65581;SDS011;52231;40.090;18.348;2023-03-19T06:10:11;40.50;;;24.27;;
65581;SDS011;52231;40.090;18.348;2023-03-19T06:12:40;39.33;;;24.08;;
65581;SDS011;52231;40.090;18.348;2023-03-19T06:15:22;51.25;;;26.65;;
65581;SDS011;52231;40.090;18.348;2023-03-19T06:17:55;55.28;;;30.58;;
65581;SDS011;52231;40.090;18.348;2023-03-19T06:20:23;70.65;;;38.03;;
65581;SDS011;52231;40.090;18.348;2023-03-19T06:22:55;58.08;;;33.25;;
65581;SDS011;52231;40.090;18.348;2023-03-19T06:25:23;47.97;;;26.60;;
65581;SDS011;52231;40.090;18.348;2023-03-19T06:27:51;48.30;;;27.73;;
65581;SDS011;52231;40.090;18.348;2023-03-19T06:30:31;53.53;;;27.58;;
65581;SDS011;52231;40.090;18.348;2023-03-19T06:33:04;54.40;;;28.42;;
65581;SDS011;52231;40.090;18.348;2023-03-19T06:38:01;55.17;;;30.63;;
65581;SDS011;52231;40.090;18.348;2023-03-19T06:45:51;37.63;;;21.05;;
65581;SDS011;52231;40.090;18.348;2023-03-19T06:48:19;37.40;;;21.40;;
65581;SDS011;52231;40.090;18.348;2023-03-19T06:50:48;35.40;;;20.42;;
65581;SDS011;52231;40.090;18.348;2023-03-19T06:53:16;36.00;;;20.15;;
65581;SDS011;52231;40.090;18.348;2023-03-19T06:55:45;32.15;;;19.15;;
65581;SDS011;52231;40.090;18.348;2023-03-19T06:58:13;30.85;;;16.33;;
65581;SDS011;52231;40.090;18.348;2023-03-19T07:00:42;31.35;;;17.70;;
65581;SDS011;52231;40.090;18.348;2023-03-19T07:03:10;34.08;;;18.10;;
65581;SDS011;52231;40.090;18.348;2023-03-19T07:05:38;27.00;;;15.20;;
65581;SDS011;52231;40.090;18.348;2023-03-19T07:10:38;25.75;;;13.18;;
65581;SDS011;52231;40.090;18.348;2023-03-19T07:13:06;24.85;;;13.80;;
65581;SDS011;52231;40.090;18.348;2023-03-19T07:15:35;21.42;;;14.00;;
65581;SDS011;52231;40.090;18.348;2023-03-19T07:18:03;25.10;;;15.02;;
65581;SDS011;52231;40.090;18.348;2023-03-19T07:20:32;28.10;;;16.15;;
65581;SDS011;52231;40.090;18.348;2023-03-19T07:23:00;21.65;;;13.00;;
65581;SDS011;52231;40.090;18.348;2023-03-19T07:25:31;22.30;;;9.73;;
65581;SDS011;52231;40.090;18.348;2023-03-19T07:28:00;15.15;;;8.70;;
65581;SDS011;52231;40.090;18.348;2023-03-19T07:30:28;13.68;;;6.45;;
65581;SDS011;52231;40.090;18.348;2023-03-19T07:32:57;14.00;;;7.30;;
65581;SDS011;52231;40.090;18.348;2023-03-19T07:35:26;11.93;;;5.28;;
65581;SDS011;52231;40.090;18.348;2023-03-19T07:37:54;10.73;;;4.50;;
65581;SDS011;52231;40.090;18.348;2023-03-19T07:40:22;10.40;;;4.13;;
65581;SDS011;52231;40.090;18.348;2023-03-19T07:42:50;9.27;;;4.03;;
65581;SDS011;52231;40.090;18.348;2023-03-19T07:47:48;5.35;;;2.55;;
65581;SDS011;52231;40.090;18.348;2023-03-19T07:50:17;5.55;;;2.70;;
65581;SDS011;52231;40.090;18.348;2023-03-19T07:52:47;6.38;;;2.70;;
65581;SDS011;52231;40.090;18.348;2023-03-19T07:55:19;7.63;;;3.25;;
65581;SDS011;52231;40.090;18.348;2023-03-19T07:57:48;8.65;;;3.38;;
65581;SDS011;52231;40.090;18.348;2023-03-19T08:00:16;8.43;;;3.50;;
65581;SDS011;52231;40.090;18.348;2023-03-19T08:02:45;8.38;;;3.55;;
65581;SDS011;52231;40.090;18.348;2023-03-19T08:05:13;7.75;;;3.50;;
65581;SDS011;52231;40.090;18.348;2023-03-19T08:07:42;9.27;;;3.72;;
65581;SDS011;52231;40.090;18.348;2023-03-19T08:10:11;6.65;;;3.15;;
65581;SDS011;52231;40.090;18.348;2023-03-19T08:15:09;6.60;;;3.10;;
65581;SDS011;52231;40.090;18.348;2023-03-19T08:17:39;7.38;;;3.00;;
65581;SDS011;52231;40.090;18.348;2023-03-19T08:20:08;7.95;;;3.05;;
65581;SDS011;52231;40.090;18.348;2023-03-19T08:22:39;7.82;;;3.10;;
65581;SDS011;52231;40.090;18.348;2023-03-19T08:25:09;5.18;;;2.60;;
65581;SDS011;52231;40.090;18.348;2023-03-19T08:27:37;5.68;;;2.70;;
65581;SDS011;52231;40.090;18.348;2023-03-19T08:30:09;7.10;;;3.00;;
65581;SDS011;52231;40.090;18.348;2023-03-19T08:32:38;6.22;;;2.85;;
65581;SDS011;52231;40.090;18.348;2023-03-19T08:35:07;7.65;;;3.00;;
65581;SDS011;52231;40.090;18.348;2023-03-19T08:37:36;6.55;;;2.83;;
65581;SDS011;52231;40.090;18.348;2023-03-19T08:40:04;5.85;;;2.60;;
65581;SDS011;52231;40.090;18.348;2023-03-19T08:42:33;6.68;;;2.88;;
65581;SDS011;52231;40.090;18.348;2023-03-19T08:45:05;6.82;;;2.97;;
65581;SDS011;52231;40.090;18.348;2023-03-19T08:47:34;6.90;;;2.92;;
65581;SDS011;52231;40.090;18.348;2023-03-19T08:52:31;6.55;;;2.90;;
65581;SDS011;52231;40.090;18.348;2023-03-19T08:55:00;6.43;;;3.08;;
65581;SDS011;52231;40.090;18.348;2023-03-19T08:57:30;6.82;;;2.92;;
65581;SDS011;52231;40.090;18.348;2023-03-19T08:59:59;8.25;;;3.05;;
65581;SDS011;52231;40.090;18.348;2023-03-19T09:02:27;6.78;;;3.20;;
65581;SDS011;52231;40.090;18.348;2023-03-19T09:04:55;8.15;;;3.70;;
65581;SDS011;52231;40.090;18.348;2023-03-19T09:07:24;6.50;;;3.08;;
65581;SDS011;52231;40.090;18.348;2023-03-19T09:09:55;8.13;;;3.38;;
65581;SDS011;52231;40.090;18.348;2023-03-19T09:12:25;6.47;;;3.10;;
65581;SDS011;52231;40.090;18.348;2023-03-19T09:17:22;7.07;;;3.20;;
65581;SDS011;52231;40.090;18.348;2023-03-19T09:22:18;8.68;;;3.65;;
65581;SDS011;52231;40.090;18.348;2023-03-19T09:27:15;17.73;;;6.60;;
65581;SDS011;52231;40.090;18.348;2023-03-19T09:29:46;8.98;;;3.80;;
65581;SDS011;52231;40.090;18.348;2023-03-19T09:32:18;7.60;;;3.50;;
65581;SDS011;52231;40.090;18.348;2023-03-19T09:34:46;11.20;;;3.70;;
65581;SDS011;52231;40.090;18.348;2023-03-19T09:37:15;7.38;;;3.50;;
65581;SDS011;52231;40.090;18.348;2023-03-19T09:39:47;9.32;;;4.15;;
65581;SDS011;52231;40.090;18.348;2023-03-19T09:45:22;8.80;;;4.07;;
65581;SDS011;52231;40.090;18.348;2023-03-19T09:47:53;9.50;;;4.18;;
65581;SDS011;52231;40.090;18.348;2023-03-19T09:50:28;8.77;;;3.90;;
65581;SDS011;52231;40.090;18.348;2023-03-19T09:55:35;8.88;;;4.05;;
65581;SDS011;52231;40.090;18.348;2023-03-19T10:00:49;10.07;;;4.03;;
65581;SDS011;52231;40.090;18.348;2023-03-19T10:06:48;8.57;;;3.42;;
65581;SDS011;52231;40.090;18.348;2023-03-19T10:17:39;7.97;;;4.03;;
65581;SDS011;52231;40.090;18.348;2023-03-19T10:25:55;8.63;;;3.78;;
65581;SDS011;52231;40.090;18.348;2023-03-19T10:28:31;9.38;;;4.25;;
65581;SDS011;52231;40.090;18.348;2023-03-19T10:36:40;12.75;;;4.18;;
65581;SDS011;52231;40.090;18.348;2023-03-19T10:39:22;9.10;;;3.97;;
65581;SDS011;52231;40.090;18.348;2023-03-19T10:50:02;10.73;;;4.18;;
65581;SDS011;52231;40.090;18.348;2023-03-19T10:52:31;8.70;;;4.07;;
65581;SDS011;52231;40.090;18.348;2023-03-19T10:57:48;10.98;;;4.10;;
65581;SDS011;52231;40.090;18.348;2023-03-19T11:02:51;7.85;;;3.85;;
65581;SDS011;52231;40.090;18.348;2023-03-19T11:05:23;10.18;;;4.03;;
65581;SDS011;52231;40.090;18.348;2023-03-19T11:08:01;9.40;;;3.67;;
65581;SDS011;52231;40.090;18.348;2023-03-19T11:10:36;8.13;;;3.70;;
65581;SDS011;52231;40.090;18.348;2023-03-19T11:13:32;12.10;;;3.70;;
65581;SDS011;52231;40.090;18.348;2023-03-19T11:39:29;10.55;;;3.60;;
65581;SDS011;52231;40.090;18.348;2023-03-19T11:45:01;7.35;;;3.00;;
65581;SDS011;52231;40.090;18.348;2023-03-19T11:50:51;8.02;;;3.47;;
65581;SDS011;52231;40.090;18.348;2023-03-19T11:53:30;9.18;;;3.10;;
65581;SDS011;52231;40.090;18.348;2023-03-19T11:56:09;7.30;;;2.88;;
65581;SDS011;52231;40.090;18.348;2023-03-19T12:02:20;8.68;;;3.10;;
65581;SDS011;52231;40.090;18.348;2023-03-19T12:16:42;8.15;;;3.00;;
65581;SDS011;52231;40.090;18.348;2023-03-19T12:19:54;6.90;;;2.50;;
65581;SDS011;52231;40.090;18.348;2023-03-19T12:22:45;7.97;;;3.22;;
65581;SDS011;52231;40.090;18.348;2023-03-19T12:34:23;5.88;;;2.65;;
65581;SDS011;52231;40.090;18.348;2023-03-19T12:39:35;12.50;;;3.90;;
65581;SDS011;52231;40.090;18.348;2023-03-19T12:42:08;5.90;;;2.40;;
65581;SDS011;52231;40.090;18.348;2023-03-19T12:44:43;5.55;;;2.53;;
65581;SDS011;52231;40.090;18.348;2023-03-19T12:47:25;8.43;;;2.67;;
65581;SDS011;52231;40.090;18.348;2023-03-19T12:50:00;7.40;;;2.38;;
65581;SDS011;52231;40.090;18.348;2023-03-19T12:52:39;6.78;;;2.60;;
65581;SDS011;52231;40.090;18.348;2023-03-19T12:55:19;9.80;;;2.85;;
65581;SDS011;52231;40.090;18.348;2023-03-19T13:00:51;6.60;;;2.67;;
65581;SDS011;52231;40.090;18.348;2023-03-19T13:03:37;7.50;;;2.55;;
65581;SDS011;52231;40.090;18.348;2023-03-19T13:06:08;7.00;;;2.75;;
65581;SDS011;52231;40.090;18.348;2023-03-19T13:08:51;7.10;;;2.90;;
65581;SDS011;52231;40.090;18.348;2023-03-19T13:17:19;6.57;;;2.47;;
65581;SDS011;52231;40.090;18.348;2023-03-19T13:19:50;6.53;;;2.63;;
65581;SDS011;52231;40.090;18.348;2023-03-19T13:22:26;7.03;;;2.85;;
65581;SDS011;52231;40.090;18.348;2023-03-19T13:24:58;5.78;;;2.50;;
65581;SDS011;52231;40.090;18.348;2023-03-19T13:27:32;5.88;;;2.53;;
65581;SDS011;52231;40.090;18.348;2023-03-19T13:30:10;6.07;;;2.30;;
65581;SDS011;52231;40.090;18.348;2023-03-19T13:35:34;7.43;;;2.80;;
65581;SDS011;52231;40.090;18.348;2023-03-19T13:43:21;5.78;;;2.50;;
65581;SDS011;52231;40.090;18.348;2023-03-19T13:46:04;5.63;;;2.63;;
65581;SDS011;52231;40.090;18.348;2023-03-19T13:51:54;8.13;;;3.13;;
65581;SDS011;52231;40.090;18.348;2023-03-19T13:54:33;7.78;;;2.92;;
65581;SDS011;52231;40.090;18.348;2023-03-19T13:59:45;5.97;;;2.70;;
65581;SDS011;52231;40.090;18.348;2023-03-19T14:07:20;6.10;;;2.75;;
65581;SDS011;52231;40.090;18.348;2023-03-19T14:12:30;7.30;;;2.80;;
65581;SDS011;52231;40.090;18.348;2023-03-19T14:17:39;7.88;;;2.88;;
65581;SDS011;52231;40.090;18.348;2023-03-19T14:25:51;7.80;;;2.80;;
65581;SDS011;52231;40.090;18.348;2023-03-19T14:28:51;7.13;;;2.50;;
65581;SDS011;52231;40.090;18.348;2023-03-19T14:34:25;6.97;;;2.53;;
65581;SDS011;52231;40.090;18.348;2023-03-19T14:39:57;7.05;;;2.70;;
65581;SDS011;52231;40.090;18.348;2023-03-19T14:56:29;6.20;;;2.60;;
65581;SDS011;52231;40.090;18.348;2023-03-19T14:58:59;5.03;;;2.40;;
65581;SDS011;52231;40.090;18.348;2023-03-19T15:01:31;7.65;;;2.90;;
65581;SDS011;52231;40.090;18.348;2023-03-19T15:04:09;7.90;;;2.88;;
65581;SDS011;52231;40.090;18.348;2023-03-19T15:06:40;7.50;;;2.60;;
65581;SDS011;52231;40.090;18.348;2023-03-19T15:09:24;7.90;;;3.13;;
65581;SDS011;52231;40.090;18.348;2023-03-19T15:18:03;6.97;;;2.85;;
65581;SDS011;52231;40.090;18.348;2023-03-19T15:20:46;5.70;;;2.70;;
65581;SDS011;52231;40.090;18.348;2023-03-19T15:23:24;5.55;;;2.50;;
65581;SDS011;52231;40.090;18.348;2023-03-19T15:25:58;8.00;;;2.65;;
65581;SDS011;52231;40.090;18.348;2023-03-19T15:28:29;10.52;;;2.88;;
65581;SDS011;52231;40.090;18.348;2023-03-19T15:31:04;6.35;;;2.70;;
65581;SDS011;52231;40.090;18.348;2023-03-19T15:33:53;6.30;;;2.80;;
65581;SDS011;52231;40.090;18.348;2023-03-19T15:36:26;7.75;;;3.17;;
65581;SDS011;52231;40.090;18.348;2023-03-19T15:39:02;6.78;;;2.55;;
65581;SDS011;52231;40.090;18.348;2023-03-19T15:41:32;10.45;;;3.28;;
65581;SDS011;52231;40.090;18.348;2023-03-19T15:44:07;9.57;;;4.28;;
65581;SDS011;52231;40.090;18.348;2023-03-19T15:46:40;7.65;;;2.80;;
65581;SDS011;52231;40.090;18.348;2023-03-19T15:49:20;8.65;;;3.08;;
65581;SDS011;52231;40.090;18.348;2023-03-19T15:51:57;9.02;;;3.92;;
65581;SDS011;52231;40.090;18.348;2023-03-19T15:54:28;9.35;;;3.90;;
65581;SDS011;52231;40.090;18.348;2023-03-19T15:56:58;8.60;;;3.85;;
65581;SDS011;52231;40.090;18.348;2023-03-19T15:59:27;8.35;;;3.55;;
65581;SDS011;52231;40.090;18.348;2023-03-19T16:02:01;6.57;;;3.05;;
65581;SDS011;52231;40.090;18.348;2023-03-19T16:04:38;9.90;;;3.55;;
65581;SDS011;52231;40.090;18.348;2023-03-19T16:09:59;9.35;;;3.88;;
65581;SDS011;52231;40.090;18.348;2023-03-19T16:12:47;10.85;;;4.57;;
65581;SDS011;52231;40.090;18.348;2023-03-19T16:31:27;13.48;;;5.75;;
65581;SDS011;52231;40.090;18.348;2023-03-19T16:33:58;14.85;;;5.47;;
65581;SDS011;52231;40.090;18.348;2023-03-19T16:36:28;16.88;;;6.90;;
65581;SDS011;52231;40.090;18.348;2023-03-19T16:39:13;11.68;;;5.70;;
65581;SDS011;52231;40.090;18.348;2023-03-19T16:42:12;12.07;;;4.88;;
65581;SDS011;52231;40.090;18.348;2023-03-19T16:44:45;13.38;;;6.40;;
65581;SDS011;52231;40.090;18.348;2023-03-19T16:47:14;14.63;;;6.53;;
65581;SDS011;52231;40.090;18.348;2023-03-19T16:49:44;17.83;;;7.95;;
65581;SDS011;52231;40.090;18.348;2023-03-19T16:52:18;11.85;;;5.00;;
65581;SDS011;52231;40.090;18.348;2023-03-19T16:57:18;10.50;;;5.25;;
65581;SDS011;52231;40.090;18.348;2023-03-19T16:59:47;13.02;;;5.30;;
65581;SDS011;52231;40.090;18.348;2023-03-19T17:04:45;11.68;;;5.15;;
65581;SDS011;52231;40.090;18.348;2023-03-19T17:07:14;13.00;;;5.10;;
65581;SDS011;52231;40.090;18.348;2023-03-19T17:12:13;10.00;;;4.40;;
65581;SDS011;52231;40.090;18.348;2023-03-19T17:14:43;12.00;;;4.70;;
65581;SDS011;52231;40.090;18.348;2023-03-19T17:17:17;9.77;;;5.10;;
65581;SDS011;52231;40.090;18.348;2023-03-19T17:19:49;18.50;;;6.15;;
65581;SDS011;52231;40.090;18.348;2023-03-19T17:22:18;14.07;;;7.05;;
65581;SDS011;52231;40.090;18.348;2023-03-19T17:24:46;14.90;;;7.80;;
65581;SDS011;52231;40.090;18.348;2023-03-19T17:29:43;17.10;;;9.88;;
65581;SDS011;52231;40.090;18.348;2023-03-19T17:32:16;23.90;;;12.77;;
65581;SDS011;52231;40.090;18.348;2023-03-19T17:34:49;20.33;;;11.48;;
65581;SDS011;52231;40.090;18.348;2023-03-19T17:37:17;24.15;;;11.82;;
65581;SDS011;52231;40.090;18.348;2023-03-19T17:39:45;33.72;;;18.50;;
65581;SDS011;52231;40.090;18.348;2023-03-19T17:42:19;21.20;;;12.90;;
65581;SDS011;52231;40.090;18.348;2023-03-19T17:44:50;15.55;;;9.60;;
65581;SDS011;52231;40.090;18.348;2023-03-19T17:47:18;19.15;;;10.48;;
65581;SDS011;52231;40.090;18.348;2023-03-19T17:52:16;19.17;;;9.18;;
65581;SDS011;52231;40.090;18.348;2023-03-19T17:54:45;22.20;;;11.43;;
65581;SDS011;52231;40.090;18.348;2023-03-19T17:57:14;32.25;;;14.68;;
65581;SDS011;52231;40.090;18.348;2023-03-19T18:02:22;64.68;;;30.30;;
65581;SDS011;52231;40.090;18.348;2023-03-19T18:04:55;52.20;;;23.42;;
65581;SDS011;52231;40.090;18.348;2023-03-19T18:07:24;57.92;;;27.27;;
65581;SDS011;52231;40.090;18.348;2023-03-19T18:12:21;45.88;;;24.45;;
65581;SDS011;52231;40.090;18.348;2023-03-19T18:14:50;41.17;;;22.55;;
65581;SDS011;52231;40.090;18.348;2023-03-19T18:17:19;41.13;;;22.30;;
65581;SDS011;52231;40.090;18.348;2023-03-19T18:19:48;29.25;;;17.30;;
65581;SDS011;52231;40.090;18.348;2023-03-19T18:22:19;29.48;;;15.70;;
65581;SDS011;52231;40.090;18.348;2023-03-19T18:24:48;21.33;;;9.95;;
65581;SDS011;52231;40.090;18.348;2023-03-19T18:27:16;21.52;;;11.00;;
65581;SDS011;52231;40.090;18.348;2023-03-19T18:29:44;28.58;;;14.18;;
65581;SDS011;52231;40.090;18.348;2023-03-19T18:32:16;28.80;;;15.18;;
65581;SDS011;52231;40.090;18.348;2023-03-19T18:34:51;29.90;;;17.73;;
65581;SDS011;52231;40.090;18.348;2023-03-19T18:37:20;20.75;;;11.25;;
65581;SDS011;52231;40.090;18.348;2023-03-19T18:42:17;22.27;;;12.20;;
65581;SDS011;52231;40.090;18.348;2023-03-19T18:44:45;23.00;;;13.93;;
65581;SDS011;52231;40.090;18.348;2023-03-19T18:47:14;23.58;;;13.95;;